sensor_id;sensor_type;location;lat;lon;timestamp;P1;durP1;ratioP1;P2;durP2;ratioP2
49041;SDS011;34859;51.608;11.462;2022-08-19T00:01:37;26.95;;;24.10;;
49041;SDS011;34859;51.608;11.462;2022-08-19T00:04:24;30.00;;;26.77;;
49041;SDS011;34859;51.608;11.462;2022-08-19T00:07:19;26.83;;;24.27;;
49041;SDS011;34859;51.608;11.462;2022-08-19T00:10:06;28.23;;;25.43;;
49041;SDS011;34859;51.608;11.462;2022-08-19T00:12:48;28.85;;;25.92;;
49041;SDS011;34859;51.608;11.462;2022-08-19T00:15:32;25.75;;;23.45;;
49041;SDS011;34859;51.608;11.462;2022-08-19T00:18:17;27.02;;;24.52;;
49041;SDS011;34859;51.608;11.462;2022-08-19T00:21:01;28.58;;;25.60;;
49041;SDS011;34859;51.608;11.462;2022-08-19T00:23:45;26.73;;;24.15;;
49041;SDS011;34859;51.608;11.462;2022-08-19T00:26:30;28.67;;;25.70;;
49041;SDS011;34859;51.608;11.462;2022-08-19T00:29:15;27.00;;;24.45;;
49041;SDS011;34859;51.608;11.462;2022-08-19T00:32:01;30.02;;;26.88;;
49041;SDS011;34859;51.608;11.462;2022-08-19T00:34:45;27.70;;;24.83;;
49041;SDS011;34859;51.608;11.462;2022-08-19T00:37:29;28.30;;;25.53;;
49041;SDS011;34859;51.608;11.462;2022-08-19T00:40:14;29.70;;;26.25;;
49041;SDS011;34859;51.608;11.462;2022-08-19T00:43:00;29.23;;;26.35;;
49041;SDS011;34859;51.608;11.462;2022-08-19T00:45:45;29.20;;;26.43;;
49041;SDS011;34859;51.608;11.462;2022-08-19T00:48:29;29.90;;;26.73;;
49041;SDS011;34859;51.608;11.462;2022-08-19T00:51:13;31.00;;;27.58;;
49041;SDS011;34859;51.608;11.462;2022-08-19T00:53:57;30.67;;;27.63;;
49041;SDS011;34859;51.608;11.462;2022-08-19T00:56:42;28.90;;;25.80;;
49041;SDS011;34859;51.608;11.462;2022-08-19T00:59:28;29.35;;;26.48;;
49041;SDS011;34859;51.608;11.462;2022-08-19T01:04:57;29.27;;;26.35;;
49041;SDS011;34859;51.608;11.462;2022-08-19T01:07:44;31.63;;;28.52;;
49041;SDS011;34859;51.608;11.462;2022-08-19T01:10:30;32.40;;;29.08;;
49041;SDS011;34859;51.608;11.462;2022-08-19T01:13:27;32.60;;;29.60;;
49041;SDS011;34859;51.608;11.462;2022-08-19T01:16:14;31.77;;;28.52;;
49041;SDS011;34859;51.608;11.462;2022-08-19T01:19:00;35.13;;;31.67;;
49041;SDS011;34859;51.608;11.462;2022-08-19T01:21:47;36.17;;;32.50;;
49041;SDS011;34859;51.608;11.462;2022-08-19T01:24:38;36.63;;;32.72;;
49041;SDS011;34859;51.608;11.462;2022-08-19T01:27:23;35.53;;;32.00;;
49041;SDS011;34859;51.608;11.462;2022-08-19T01:30:07;36.78;;;32.88;;
49041;SDS011;34859;51.608;11.462;2022-08-19T01:32:52;36.15;;;32.63;;
49041;SDS011;34859;51.608;11.462;2022-08-19T01:35:37;40.03;;;35.42;;
49041;SDS011;34859;51.608;11.462;2022-08-19T01:38:24;37.20;;;33.30;;
49041;SDS011;34859;51.608;11.462;2022-08-19T01:41:11;38.13;;;34.17;;
49041;SDS011;34859;51.608;11.462;2022-08-19T01:43:56;38.67;;;34.78;;
49041;SDS011;34859;51.608;11.462;2022-08-19T01:46:40;38.17;;;34.17;;
49041;SDS011;34859;51.608;11.462;2022-08-19T01:49:26;39.75;;;35.88;;
49041;SDS011;34859;51.608;11.462;2022-08-19T01:52:10;38.83;;;33.47;;
49041;SDS011;34859;51.608;11.462;2022-08-19T01:54:54;37.38;;;33.45;;
49041;SDS011;34859;51.608;11.462;2022-08-19T01:57:38;38.25;;;34.10;;
49041;SDS011;34859;51.608;11.462;2022-08-19T02:00:26;38.60;;;34.72;;
49041;SDS011;34859;51.608;11.462;2022-08-19T02:03:13;39.15;;;35.20;;
49041;SDS011;34859;51.608;11.462;2022-08-19T02:05:59;37.50;;;33.63;;
49041;SDS011;34859;51.608;11.462;2022-08-19T02:08:44;40.22;;;34.20;;
49041;SDS011;34859;51.608;11.462;2022-08-19T02:11:32;39.83;;;34.35;;
49041;SDS011;34859;51.608;11.462;2022-08-19T02:14:17;36.83;;;33.08;;
49041;SDS011;34859;51.608;11.462;2022-08-19T02:17:01;38.08;;;34.03;;
49041;SDS011;34859;51.608;11.462;2022-08-19T02:22:31;34.05;;;30.58;;
49041;SDS011;34859;51.608;11.462;2022-08-19T02:25:15;36.17;;;32.53;;
49041;SDS011;34859;51.608;11.462;2022-08-19T02:27:59;37.28;;;33.08;;
49041;SDS011;34859;51.608;11.462;2022-08-19T02:30:44;36.58;;;33.00;;
49041;SDS011;34859;51.608;11.462;2022-08-19T02:33:30;36.13;;;32.40;;
49041;SDS011;34859;51.608;11.462;2022-08-19T02:36:15;36.50;;;32.72;;
49041;SDS011;34859;51.608;11.462;2022-08-19T02:39:00;33.97;;;30.13;;
49041;SDS011;34859;51.608;11.462;2022-08-19T02:41:44;35.43;;;31.50;;
49041;SDS011;34859;51.608;11.462;2022-08-19T02:44:29;32.88;;;29.63;;
49041;SDS011;34859;51.608;11.462;2022-08-19T02:47:13;34.60;;;30.45;;
49041;SDS011;34859;51.608;11.462;2022-08-19T02:50:00;34.17;;;30.75;;
49041;SDS011;34859;51.608;11.462;2022-08-19T02:52:45;32.92;;;29.17;;
49041;SDS011;34859;51.608;11.462;2022-08-19T02:55:29;34.20;;;29.80;;
49041;SDS011;34859;51.608;11.462;2022-08-19T02:58:14;34.20;;;30.73;;
49041;SDS011;34859;51.608;11.462;2022-08-19T03:00:59;33.97;;;29.90;;
49041;SDS011;34859;51.608;11.462;2022-08-19T03:03:45;30.60;;;27.67;;
49041;SDS011;34859;51.608;11.462;2022-08-19T03:09:14;33.05;;;29.55;;
49041;SDS011;34859;51.608;11.462;2022-08-19T03:12:01;30.63;;;27.70;;
49041;SDS011;34859;51.608;11.462;2022-08-19T03:14:47;36.15;;;27.83;;
49041;SDS011;34859;51.608;11.462;2022-08-19T03:17:28;30.70;;;27.70;;
49041;SDS011;34859;51.608;11.462;2022-08-19T03:20:12;30.27;;;27.13;;
49041;SDS011;34859;51.608;11.462;2022-08-19T03:22:56;30.73;;;27.27;;
49041;SDS011;34859;51.608;11.462;2022-08-19T03:25:42;34.08;;;28.77;;
49041;SDS011;34859;51.608;11.462;2022-08-19T03:28:28;30.08;;;26.98;;
49041;SDS011;34859;51.608;11.462;2022-08-19T03:31:13;33.38;;;29.20;;
49041;SDS011;34859;51.608;11.462;2022-08-19T03:36:42;30.77;;;27.20;;
49041;SDS011;34859;51.608;11.462;2022-08-19T03:39:28;28.90;;;25.95;;
49041;SDS011;34859;51.608;11.462;2022-08-19T03:42:12;30.10;;;26.03;;
49041;SDS011;34859;51.608;11.462;2022-08-19T03:44:56;31.48;;;26.42;;
49041;SDS011;34859;51.608;11.462;2022-08-19T03:47:41;31.75;;;26.85;;
49041;SDS011;34859;51.608;11.462;2022-08-19T03:50:25;29.42;;;26.42;;
49041;SDS011;34859;51.608;11.462;2022-08-19T03:53:09;30.03;;;26.07;;
49041;SDS011;34859;51.608;11.462;2022-08-19T03:55:54;28.38;;;25.40;;
49041;SDS011;34859;51.608;11.462;2022-08-19T03:58:39;31.38;;;26.88;;
49041;SDS011;34859;51.608;11.462;2022-08-19T04:06:54;29.17;;;26.17;;
49041;SDS011;34859;51.608;11.462;2022-08-19T04:12:23;31.08;;;27.55;;
49041;SDS011;34859;51.608;11.462;2022-08-19T04:15:08;30.73;;;26.60;;
49041;SDS011;34859;51.608;11.462;2022-08-19T04:17:49;26.77;;;24.05;;
49041;SDS011;34859;51.608;11.462;2022-08-19T04:20:54;29.20;;;25.77;;
49041;SDS011;34859;51.608;11.462;2022-08-19T04:23:37;33.38;;;24.05;;
49041;SDS011;34859;51.608;11.462;2022-08-19T04:26:23;28.43;;;25.33;;
49041;SDS011;34859;51.608;11.462;2022-08-19T04:29:11;27.55;;;24.55;;
49041;SDS011;34859;51.608;11.462;2022-08-19T04:32:01;27.70;;;24.83;;
49041;SDS011;34859;51.608;11.462;2022-08-19T04:34:42;32.83;;;24.67;;
49041;SDS011;34859;51.608;11.462;2022-08-19T04:37:26;28.93;;;25.90;;
49041;SDS011;34859;51.608;11.462;2022-08-19T04:40:11;29.65;;;26.58;;
49041;SDS011;34859;51.608;11.462;2022-08-19T04:43:14;27.02;;;24.15;;
49041;SDS011;34859;51.608;11.462;2022-08-19T04:46:04;27.48;;;24.50;;
49041;SDS011;34859;51.608;11.462;2022-08-19T04:48:52;26.27;;;23.42;;
49041;SDS011;34859;51.608;11.462;2022-08-19T04:51:39;27.60;;;24.83;;
49041;SDS011;34859;51.608;11.462;2022-08-19T04:54:25;29.83;;;25.58;;
49041;SDS011;34859;51.608;11.462;2022-08-19T04:57:09;26.87;;;24.00;;
49041;SDS011;34859;51.608;11.462;2022-08-19T04:59:54;25.73;;;23.20;;
49041;SDS011;34859;51.608;11.462;2022-08-19T05:02:39;26.88;;;24.27;;
49041;SDS011;34859;51.608;11.462;2022-08-19T05:05:23;28.33;;;22.77;;
49041;SDS011;34859;51.608;11.462;2022-08-19T05:08:08;25.40;;;22.58;;
49041;SDS011;34859;51.608;11.462;2022-08-19T05:10:52;24.63;;;22.00;;
49041;SDS011;34859;51.608;11.462;2022-08-19T05:13:36;24.50;;;21.40;;
49041;SDS011;34859;51.608;11.462;2022-08-19T05:16:21;25.55;;;21.02;;
49041;SDS011;34859;51.608;11.462;2022-08-19T05:19:03;25.88;;;22.67;;
49041;SDS011;34859;51.608;11.462;2022-08-19T05:22:06;24.73;;;21.42;;
49041;SDS011;34859;51.608;11.462;2022-08-19T05:25:10;23.80;;;20.42;;
49041;SDS011;34859;51.608;11.462;2022-08-19T05:27:55;24.25;;;21.92;;
49041;SDS011;34859;51.608;11.462;2022-08-19T05:30:40;24.00;;;21.50;;
49041;SDS011;34859;51.608;11.462;2022-08-19T05:33:24;29.00;;;24.40;;
49041;SDS011;34859;51.608;11.462;2022-08-19T05:36:06;28.98;;;25.88;;
49041;SDS011;34859;51.608;11.462;2022-08-19T05:38:50;28.55;;;25.65;;
49041;SDS011;34859;51.608;11.462;2022-08-19T05:41:40;33.55;;;26.90;;
49041;SDS011;34859;51.608;11.462;2022-08-19T05:44:29;33.47;;;28.20;;
49041;SDS011;34859;51.608;11.462;2022-08-19T05:47:15;30.98;;;27.13;;
49041;SDS011;34859;51.608;11.462;2022-08-19T05:50:03;30.75;;;27.08;;
49041;SDS011;34859;51.608;11.462;2022-08-19T05:52:47;31.00;;;27.58;;
49041;SDS011;34859;51.608;11.462;2022-08-19T05:55:32;31.90;;;28.42;;
49041;SDS011;34859;51.608;11.462;2022-08-19T05:58:16;30.13;;;26.95;;
49041;SDS011;34859;51.608;11.462;2022-08-19T06:01:00;34.30;;;28.63;;
49041;SDS011;34859;51.608;11.462;2022-08-19T06:03:49;30.95;;;27.55;;
49041;SDS011;34859;51.608;11.462;2022-08-19T06:06:34;31.98;;;27.77;;
49041;SDS011;34859;51.608;11.462;2022-08-19T06:09:19;38.08;;;30.58;;
49041;SDS011;34859;51.608;11.462;2022-08-19T06:12:05;32.47;;;29.20;;
49041;SDS011;34859;51.608;11.462;2022-08-19T06:14:49;33.33;;;29.95;;
49041;SDS011;34859;51.608;11.462;2022-08-19T06:17:34;30.45;;;27.17;;
49041;SDS011;34859;51.608;11.462;2022-08-19T06:20:19;30.73;;;27.42;;
49041;SDS011;34859;51.608;11.462;2022-08-19T06:23:04;32.83;;;29.02;;
49041;SDS011;34859;51.608;11.462;2022-08-19T06:25:48;30.50;;;27.25;;
49041;SDS011;34859;51.608;11.462;2022-08-19T06:28:31;32.88;;;29.40;;
49041;SDS011;34859;51.608;11.462;2022-08-19T06:34:04;32.15;;;27.00;;
49041;SDS011;34859;51.608;11.462;2022-08-19T06:36:50;30.60;;;27.27;;
49041;SDS011;34859;51.608;11.462;2022-08-19T06:39:34;30.38;;;27.17;;
49041;SDS011;34859;51.608;11.462;2022-08-19T06:42:21;30.60;;;27.40;;
49041;SDS011;34859;51.608;11.462;2022-08-19T06:45:06;31.17;;;27.83;;
49041;SDS011;34859;51.608;11.462;2022-08-19T06:47:52;32.22;;;28.38;;
49041;SDS011;34859;51.608;11.462;2022-08-19T06:50:36;32.13;;;28.73;;
49041;SDS011;34859;51.608;11.462;2022-08-19T06:53:20;31.25;;;26.05;;
49041;SDS011;34859;51.608;11.462;2022-08-19T06:56:05;28.77;;;25.77;;
49041;SDS011;34859;51.608;11.462;2022-08-19T06:58:50;29.17;;;24.95;;
49041;SDS011;34859;51.608;11.462;2022-08-19T07:01:36;25.35;;;22.70;;
49041;SDS011;34859;51.608;11.462;2022-08-19T07:04:22;25.92;;;23.15;;
49041;SDS011;34859;51.608;11.462;2022-08-19T07:07:11;27.45;;;22.95;;
49041;SDS011;34859;51.608;11.462;2022-08-19T07:09:58;24.52;;;22.00;;
49041;SDS011;34859;51.608;11.462;2022-08-19T07:12:42;24.83;;;22.17;;
49041;SDS011;34859;51.608;11.462;2022-08-19T07:15:26;24.75;;;22.20;;
49041;SDS011;34859;51.608;11.462;2022-08-19T07:18:07;23.95;;;21.48;;
49041;SDS011;34859;51.608;11.462;2022-08-19T07:21:01;23.35;;;21.25;;
49041;SDS011;34859;51.608;11.462;2022-08-19T07:23:53;23.92;;;21.63;;
49041;SDS011;34859;51.608;11.462;2022-08-19T07:26:40;28.48;;;25.45;;
49041;SDS011;34859;51.608;11.462;2022-08-19T07:29:23;32.20;;;29.08;;
49041;SDS011;34859;51.608;11.462;2022-08-19T07:32:07;32.15;;;28.83;;
49041;SDS011;34859;51.608;11.462;2022-08-19T07:37:37;36.88;;;31.10;;
49041;SDS011;34859;51.608;11.462;2022-08-19T07:40:20;36.10;;;32.38;;
49041;SDS011;34859;51.608;11.462;2022-08-19T07:43:04;32.83;;;29.43;;
49041;SDS011;34859;51.608;11.462;2022-08-19T07:45:48;31.30;;;28.05;;
49041;SDS011;34859;51.608;11.462;2022-08-19T07:48:29;32.08;;;28.70;;
49041;SDS011;34859;51.608;11.462;2022-08-19T07:51:15;30.33;;;27.48;;
49041;SDS011;34859;51.608;11.462;2022-08-19T07:54:01;30.25;;;26.90;;
49041;SDS011;34859;51.608;11.462;2022-08-19T07:56:45;30.52;;;27.23;;
49041;SDS011;34859;51.608;11.462;2022-08-19T07:59:29;29.30;;;26.55;;
49041;SDS011;34859;51.608;11.462;2022-08-19T08:02:14;30.17;;;27.08;;
49041;SDS011;34859;51.608;11.462;2022-08-19T08:04:58;30.20;;;26.73;;
49041;SDS011;34859;51.608;11.462;2022-08-19T08:08:01;28.00;;;24.92;;
49041;SDS011;34859;51.608;11.462;2022-08-19T08:11:01;28.77;;;25.83;;
49041;SDS011;34859;51.608;11.462;2022-08-19T08:13:46;27.95;;;25.08;;
49041;SDS011;34859;51.608;11.462;2022-08-19T08:16:33;26.60;;;24.10;;
49041;SDS011;34859;51.608;11.462;2022-08-19T08:19:22;25.15;;;22.77;;
49041;SDS011;34859;51.608;11.462;2022-08-19T08:22:08;26.55;;;24.13;;
49041;SDS011;34859;51.608;11.462;2022-08-19T08:25:17;25.00;;;22.63;;
49041;SDS011;34859;51.608;11.462;2022-08-19T08:28:04;25.58;;;23.02;;
49041;SDS011;34859;51.608;11.462;2022-08-19T08:30:49;24.67;;;22.08;;
49041;SDS011;34859;51.608;11.462;2022-08-19T08:33:34;24.88;;;22.58;;
49041;SDS011;34859;51.608;11.462;2022-08-19T08:36:18;25.42;;;22.80;;
49041;SDS011;34859;51.608;11.462;2022-08-19T08:39:02;25.70;;;23.27;;
49041;SDS011;34859;51.608;11.462;2022-08-19T08:45:00;26.30;;;21.90;;
49041;SDS011;34859;51.608;11.462;2022-08-19T08:47:57;23.65;;;21.33;;
49041;SDS011;34859;51.608;11.462;2022-08-19T08:50:44;24.48;;;21.88;;
49041;SDS011;34859;51.608;11.462;2022-08-19T08:53:31;25.33;;;23.02;;
49041;SDS011;34859;51.608;11.462;2022-08-19T08:56:17;24.73;;;22.42;;
49041;SDS011;34859;51.608;11.462;2022-08-19T08:59:23;25.60;;;23.20;;
49041;SDS011;34859;51.608;11.462;2022-08-19T09:02:14;24.25;;;21.77;;
49041;SDS011;34859;51.608;11.462;2022-08-19T09:04:59;24.48;;;22.23;;
49041;SDS011;34859;51.608;11.462;2022-08-19T09:10:49;22.95;;;20.98;;
49041;SDS011;34859;51.608;11.462;2022-08-19T09:13:49;24.33;;;22.10;;
49041;SDS011;34859;51.608;11.462;2022-08-19T09:16:41;22.80;;;20.55;;
49041;SDS011;34859;51.608;11.462;2022-08-19T09:19:25;24.70;;;22.38;;
49041;SDS011;34859;51.608;11.462;2022-08-19T09:22:06;23.60;;;21.27;;
49041;SDS011;34859;51.608;11.462;2022-08-19T09:24:51;24.40;;;22.08;;
49041;SDS011;34859;51.608;11.462;2022-08-19T09:27:36;23.35;;;21.08;;
49041;SDS011;34859;51.608;11.462;2022-08-19T09:30:23;23.38;;;21.10;;
49041;SDS011;34859;51.608;11.462;2022-08-19T09:33:08;22.67;;;20.40;;
49041;SDS011;34859;51.608;11.462;2022-08-19T09:35:50;22.13;;;20.13;;
49041;SDS011;34859;51.608;11.462;2022-08-19T09:38:46;20.98;;;19.02;;
49041;SDS011;34859;51.608;11.462;2022-08-19T09:41:31;22.67;;;20.40;;
49041;SDS011;34859;51.608;11.462;2022-08-19T09:44:15;24.50;;;22.07;;
49041;SDS011;34859;51.608;11.462;2022-08-19T09:47:00;25.02;;;21.48;;
49041;SDS011;34859;51.608;11.462;2022-08-19T09:49:44;24.42;;;21.75;;
49041;SDS011;34859;51.608;11.462;2022-08-19T09:52:28;22.50;;;20.17;;
49041;SDS011;34859;51.608;11.462;2022-08-19T09:55:12;22.80;;;20.23;;
49041;SDS011;34859;51.608;11.462;2022-08-19T09:57:56;25.40;;;20.60;;
49041;SDS011;34859;51.608;11.462;2022-08-19T10:00:37;20.52;;;18.50;;
49041;SDS011;34859;51.608;11.462;2022-08-19T10:03:22;21.45;;;18.20;;
49041;SDS011;34859;51.608;11.462;2022-08-19T10:06:06;20.25;;;18.23;;
49041;SDS011;34859;51.608;11.462;2022-08-19T10:08:49;20.50;;;18.30;;
49041;SDS011;34859;51.608;11.462;2022-08-19T10:11:35;20.77;;;16.25;;
49041;SDS011;34859;51.608;11.462;2022-08-19T10:14:21;21.13;;;18.20;;
49041;SDS011;34859;51.608;11.462;2022-08-19T10:17:07;20.08;;;18.15;;
49041;SDS011;34859;51.608;11.462;2022-08-19T10:19:52;17.17;;;15.52;;
49041;SDS011;34859;51.608;11.462;2022-08-19T10:22:36;18.95;;;17.20;;
49041;SDS011;34859;51.608;11.462;2022-08-19T10:25:21;19.63;;;16.02;;
49041;SDS011;34859;51.608;11.462;2022-08-19T10:28:05;20.23;;;16.23;;
49041;SDS011;34859;51.608;11.462;2022-08-19T10:30:49;17.73;;;16.00;;
49041;SDS011;34859;51.608;11.462;2022-08-19T10:33:33;16.77;;;15.40;;
49041;SDS011;34859;51.608;11.462;2022-08-19T10:36:20;16.50;;;14.93;;
49041;SDS011;34859;51.608;11.462;2022-08-19T10:39:07;14.98;;;13.73;;
49041;SDS011;34859;51.608;11.462;2022-08-19T10:41:52;16.80;;;15.23;;
49041;SDS011;34859;51.608;11.462;2022-08-19T10:44:36;15.33;;;14.13;;
49041;SDS011;34859;51.608;11.462;2022-08-19T10:47:20;14.52;;;13.23;;
49041;SDS011;34859;51.608;11.462;2022-08-19T10:50:06;14.68;;;13.35;;
49041;SDS011;34859;51.608;11.462;2022-08-19T10:53:06;16.85;;;15.27;;
49041;SDS011;34859;51.608;11.462;2022-08-19T10:55:54;14.40;;;13.20;;
49041;SDS011;34859;51.608;11.462;2022-08-19T10:58:57;13.98;;;12.88;;
49041;SDS011;34859;51.608;11.462;2022-08-19T11:01:42;16.35;;;14.00;;
49041;SDS011;34859;51.608;11.462;2022-08-19T11:04:27;15.43;;;13.90;;
49041;SDS011;34859;51.608;11.462;2022-08-19T11:07:12;15.02;;;13.77;;
49041;SDS011;34859;51.608;11.462;2022-08-19T11:09:56;13.60;;;12.37;;
49041;SDS011;34859;51.608;11.462;2022-08-19T11:12:40;15.37;;;13.87;;
49041;SDS011;34859;51.608;11.462;2022-08-19T11:15:24;15.37;;;14.10;;
49041;SDS011;34859;51.608;11.462;2022-08-19T11:18:08;13.20;;;11.87;;
49041;SDS011;34859;51.608;11.462;2022-08-19T11:20:49;14.02;;;12.73;;
49041;SDS011;34859;51.608;11.462;2022-08-19T11:23:33;14.43;;;13.00;;
49041;SDS011;34859;51.608;11.462;2022-08-19T11:26:18;14.35;;;13.05;;
49041;SDS011;34859;51.608;11.462;2022-08-19T11:29:02;14.40;;;13.13;;
49041;SDS011;34859;51.608;11.462;2022-08-19T11:31:49;13.38;;;12.38;;
49041;SDS011;34859;51.608;11.462;2022-08-19T11:34:34;14.95;;;13.70;;
49041;SDS011;34859;51.608;11.462;2022-08-19T11:37:16;15.10;;;13.63;;
49041;SDS011;34859;51.608;11.462;2022-08-19T11:40:00;16.30;;;14.45;;
49041;SDS011;34859;51.608;11.462;2022-08-19T11:42:44;15.97;;;14.60;;
49041;SDS011;34859;51.608;11.462;2022-08-19T11:45:40;16.33;;;14.80;;
49041;SDS011;34859;51.608;11.462;2022-08-19T11:48:24;16.65;;;14.95;;
49041;SDS011;34859;51.608;11.462;2022-08-19T11:51:11;16.97;;;15.17;;
49041;SDS011;34859;51.608;11.462;2022-08-19T11:53:58;18.88;;;14.82;;
49041;SDS011;34859;51.608;11.462;2022-08-19T11:56:43;15.80;;;14.30;;
49041;SDS011;34859;51.608;11.462;2022-08-19T11:59:29;15.55;;;14.20;;
49041;SDS011;34859;51.608;11.462;2022-08-19T12:02:14;16.33;;;14.90;;
49041;SDS011;34859;51.608;11.462;2022-08-19T12:07:46;16.35;;;14.85;;
49041;SDS011;34859;51.608;11.462;2022-08-19T12:10:30;15.50;;;14.10;;
49041;SDS011;34859;51.608;11.462;2022-08-19T12:13:12;13.85;;;12.70;;
49041;SDS011;34859;51.608;11.462;2022-08-19T12:15:59;14.65;;;13.35;;
49041;SDS011;34859;51.608;11.462;2022-08-19T12:18:41;13.52;;;12.43;;
49041;SDS011;34859;51.608;11.462;2022-08-19T12:21:30;14.27;;;13.07;;
49041;SDS011;34859;51.608;11.462;2022-08-19T12:24:15;14.32;;;13.15;;
49041;SDS011;34859;51.608;11.462;2022-08-19T12:27:06;13.25;;;12.18;;
49041;SDS011;34859;51.608;11.462;2022-08-19T12:29:50;13.68;;;12.38;;
49041;SDS011;34859;51.608;11.462;2022-08-19T12:32:34;14.47;;;13.13;;
49041;SDS011;34859;51.608;11.462;2022-08-19T12:35:18;12.73;;;11.73;;
49041;SDS011;34859;51.608;11.462;2022-08-19T12:38:03;12.55;;;11.45;;
49041;SDS011;34859;51.608;11.462;2022-08-19T12:43:33;12.35;;;11.30;;
49041;SDS011;34859;51.608;11.462;2022-08-19T12:49:02;12.43;;;11.52;;
49041;SDS011;34859;51.608;11.462;2022-08-19T12:51:47;12.03;;;11.03;;
49041;SDS011;34859;51.608;11.462;2022-08-19T12:54:31;11.70;;;10.75;;
49041;SDS011;34859;51.608;11.462;2022-08-19T12:57:15;12.50;;;11.50;;
49041;SDS011;34859;51.608;11.462;2022-08-19T13:00:04;12.00;;;10.50;;
49041;SDS011;34859;51.608;11.462;2022-08-19T13:05:39;11.70;;;10.52;;
49041;SDS011;34859;51.608;11.462;2022-08-19T13:08:23;11.20;;;10.50;;
49041;SDS011;34859;51.608;11.462;2022-08-19T13:11:11;11.25;;;10.55;;
49041;SDS011;34859;51.608;11.462;2022-08-19T13:13:57;12.32;;;11.50;;
49041;SDS011;34859;51.608;11.462;2022-08-19T13:16:42;11.07;;;9.75;;
49041;SDS011;34859;51.608;11.462;2022-08-19T13:19:26;11.20;;;10.18;;
49041;SDS011;34859;51.608;11.462;2022-08-19T13:22:10;10.15;;;9.55;;
49041;SDS011;34859;51.608;11.462;2022-08-19T13:24:56;11.82;;;10.98;;
49041;SDS011;34859;51.608;11.462;2022-08-19T13:27:40;11.15;;;10.15;;
49041;SDS011;34859;51.608;11.462;2022-08-19T13:30:24;11.57;;;10.48;;
49041;SDS011;34859;51.608;11.462;2022-08-19T13:33:27;9.48;;;8.75;;
49041;SDS011;34859;51.608;11.462;2022-08-19T13:36:12;8.60;;;8.00;;
49041;SDS011;34859;51.608;11.462;2022-08-19T13:38:56;8.77;;;7.95;;
49041;SDS011;34859;51.608;11.462;2022-08-19T13:41:44;8.40;;;7.75;;
49041;SDS011;34859;51.608;11.462;2022-08-19T13:44:31;8.10;;;7.30;;
49041;SDS011;34859;51.608;11.462;2022-08-19T13:47:15;7.40;;;6.88;;
49041;SDS011;34859;51.608;11.462;2022-08-19T13:50:03;8.05;;;7.30;;
49041;SDS011;34859;51.608;11.462;2022-08-19T13:52:48;7.78;;;7.07;;
49041;SDS011;34859;51.608;11.462;2022-08-19T13:55:32;7.68;;;7.18;;
49041;SDS011;34859;51.608;11.462;2022-08-19T13:58:17;6.90;;;6.32;;
49041;SDS011;34859;51.608;11.462;2022-08-19T14:01:02;8.43;;;7.80;;
49041;SDS011;34859;51.608;11.462;2022-08-19T14:03:47;7.10;;;6.60;;
49041;SDS011;34859;51.608;11.462;2022-08-19T14:06:32;7.80;;;7.10;;
49041;SDS011;34859;51.608;11.462;2022-08-19T14:09:17;6.53;;;5.68;;
49041;SDS011;34859;51.608;11.462;2022-08-19T14:12:00;6.20;;;5.80;;
49041;SDS011;34859;51.608;11.462;2022-08-19T14:14:45;7.47;;;6.77;;
49041;SDS011;34859;51.608;11.462;2022-08-19T14:17:29;6.28;;;5.90;;
49041;SDS011;34859;51.608;11.462;2022-08-19T14:20:14;6.32;;;5.93;;
49041;SDS011;34859;51.608;11.462;2022-08-19T14:22:59;7.65;;;6.82;;
49041;SDS011;34859;51.608;11.462;2022-08-19T14:25:43;7.13;;;6.63;;
49041;SDS011;34859;51.608;11.462;2022-08-19T14:28:27;6.90;;;6.38;;
49041;SDS011;34859;51.608;11.462;2022-08-19T14:31:13;5.95;;;5.65;;
49041;SDS011;34859;51.608;11.462;2022-08-19T14:34:02;6.63;;;6.07;;
49041;SDS011;34859;51.608;11.462;2022-08-19T14:36:46;6.80;;;6.40;;
49041;SDS011;34859;51.608;11.462;2022-08-19T14:39:30;6.63;;;6.23;;
49041;SDS011;34859;51.608;11.462;2022-08-19T14:42:14;6.95;;;6.38;;
49041;SDS011;34859;51.608;11.462;2022-08-19T14:44:59;7.22;;;6.78;;
49041;SDS011;34859;51.608;11.462;2022-08-19T14:47:43;7.22;;;6.78;;
49041;SDS011;34859;51.608;11.462;2022-08-19T14:50:27;6.20;;;5.90;;
49041;SDS011;34859;51.608;11.462;2022-08-19T14:53:11;7.77;;;7.27;;
49041;SDS011;34859;51.608;11.462;2022-08-19T14:55:56;7.20;;;6.55;;
49041;SDS011;34859;51.608;11.462;2022-08-19T14:58:40;7.07;;;6.47;;
49041;SDS011;34859;51.608;11.462;2022-08-19T15:01:26;7.28;;;6.68;;
49041;SDS011;34859;51.608;11.462;2022-08-19T15:04:07;6.55;;;6.03;;
49041;SDS011;34859;51.608;11.462;2022-08-19T15:06:52;6.82;;;6.50;;
49041;SDS011;34859;51.608;11.462;2022-08-19T15:09:36;7.00;;;6.60;;
49041;SDS011;34859;51.608;11.462;2022-08-19T15:12:20;6.57;;;6.22;;
49041;SDS011;34859;51.608;11.462;2022-08-19T15:15:07;6.25;;;5.90;;
49041;SDS011;34859;51.608;11.462;2022-08-19T15:17:56;7.03;;;6.63;;
49041;SDS011;34859;51.608;11.462;2022-08-19T15:20:46;6.72;;;6.20;;
49041;SDS011;34859;51.608;11.462;2022-08-19T15:23:31;7.00;;;6.50;;
49041;SDS011;34859;51.608;11.462;2022-08-19T15:26:16;7.32;;;6.82;;
49041;SDS011;34859;51.608;11.462;2022-08-19T15:29:02;8.52;;;7.72;;
49041;SDS011;34859;51.608;11.462;2022-08-19T15:31:47;8.45;;;7.63;;
49041;SDS011;34859;51.608;11.462;2022-08-19T15:34:32;7.10;;;6.60;;
49041;SDS011;34859;51.608;11.462;2022-08-19T15:37:17;6.80;;;6.30;;
49041;SDS011;34859;51.608;11.462;2022-08-19T15:40:01;7.10;;;6.63;;
49041;SDS011;34859;51.608;11.462;2022-08-19T15:42:45;7.40;;;6.65;;
49041;SDS011;34859;51.608;11.462;2022-08-19T15:45:32;7.95;;;7.25;;
49041;SDS011;34859;51.608;11.462;2022-08-19T15:48:17;7.20;;;6.80;;
49041;SDS011;34859;51.608;11.462;2022-08-19T15:51:01;7.30;;;6.80;;
49041;SDS011;34859;51.608;11.462;2022-08-19T15:53:42;8.18;;;7.47;;
49041;SDS011;34859;51.608;11.462;2022-08-19T15:56:26;8.20;;;6.80;;
49041;SDS011;34859;51.608;11.462;2022-08-19T15:59:32;8.73;;;6.80;;
49041;SDS011;34859;51.608;11.462;2022-08-19T16:02:36;7.30;;;6.83;;
49041;SDS011;34859;51.608;11.462;2022-08-19T16:05:39;6.45;;;6.05;;
49041;SDS011;34859;51.608;11.462;2022-08-19T16:08:41;6.80;;;6.20;;
49041;SDS011;34859;51.608;11.462;2022-08-19T16:11:27;7.68;;;7.18;;
49041;SDS011;34859;51.608;11.462;2022-08-19T16:14:14;6.93;;;6.43;;
49041;SDS011;34859;51.608;11.462;2022-08-19T16:17:02;7.90;;;7.15;;
49041;SDS011;34859;51.608;11.462;2022-08-19T16:19:46;6.97;;;6.55;;
49041;SDS011;34859;51.608;11.462;2022-08-19T16:22:31;7.28;;;6.82;;
49041;SDS011;34859;51.608;11.462;2022-08-19T16:25:13;8.43;;;7.63;;
49041;SDS011;34859;51.608;11.462;2022-08-19T16:27:57;7.85;;;7.30;;
49041;SDS011;34859;51.608;11.462;2022-08-19T16:30:42;7.68;;;7.18;;
49041;SDS011;34859;51.608;11.462;2022-08-19T16:33:23;7.72;;;7.22;;
49041;SDS011;34859;51.608;11.462;2022-08-19T16:36:07;8.02;;;7.63;;
49041;SDS011;34859;51.608;11.462;2022-08-19T16:38:52;8.80;;;8.20;;
49041;SDS011;34859;51.608;11.462;2022-08-19T16:41:37;8.55;;;8.05;;
49041;SDS011;34859;51.608;11.462;2022-08-19T16:44:22;9.23;;;8.63;;